sensor_id;sensor_type;location;lat;lon;timestamp;temperature;humidity
17333;DHT22;8784;50.94667800;7.08448400;2023-07-29T00:00:41;19.90;99.90
17333;DHT22;8784;50.94667800;7.08448400;2023-07-29T00:03:08;20.00;99.90
17333;DHT22;8784;50.94667800;7.08448400;2023-07-29T00:05:36;20.00;99.90
17333;DHT22;8784;50.94667800;7.08448400;2023-07-29T00:08:03;20.00;99.90
17333;DHT22;8784;50.94667800;7.08448400;2023-07-29T00:10:32;20.00;99.90
17333;DHT22;8784;50.94667800;7.08448400;2023-07-29T00:13:00;20.00;99.90
17333;DHT22;8784;50.94667800;7.08448400;2023-07-29T00:15:27;20.00;99.90
17333;DHT22;8784;50.94667800;7.08448400;2023-07-29T00:17:54;20.00;99.90
17333;DHT22;8784;50.94667800;7.08448400;2023-07-29T00:20:21;20.10;99.90
17333;DHT22;8784;50.94667800;7.08448400;2023-07-29T00:22:48;20.10;99.90
17333;DHT22;8784;50.94667800;7.08448400;2023-07-29T00:25:15;20.20;99.90
17333;DHT22;8784;50.94667800;7.08448400;2023-07-29T00:27:42;20.30;99.90
17333;DHT22;8784;50.94667800;7.08448400;2023-07-29T00:30:11;20.30;99.90
17333;DHT22;8784;50.94667800;7.08448400;2023-07-29T00:32:38;20.30;99.90
17333;DHT22;8784;50.94667800;7.08448400;2023-07-29T00:35:08;20.30;99.90
17333;DHT22;8784;50.94667800;7.08448400;2023-07-29T00:37:36;20.30;99.90
17333;DHT22;8784;50.94667800;7.08448400;2023-07-29T00:40:04;20.20;99.90
17333;DHT22;8784;50.94667800;7.08448400;2023-07-29T00:42:30;20.10;99.90
17333;DHT22;8784;50.94667800;7.08448400;2023-07-29T00:44:57;20.00;99.90
17333;DHT22;8784;50.94667800;7.08448400;2023-07-29T00:47:25;19.90;99.90
17333;DHT22;8784;50.94667800;7.08448400;2023-07-29T00:49:52;19.70;99.90
17333;DHT22;8784;50.94667800;7.08448400;2023-07-29T00:52:19;19.80;99.90
17333;DHT22;8784;50.94667800;7.08448400;2023-07-29T00:54:46;19.80;99.90
17333;DHT22;8784;50.94667800;7.08448400;2023-07-29T00:57:14;19.80;99.90
17333;DHT22;8784;50.94667800;7.08448400;2023-07-29T00:59:41;19.80;99.90
17333;DHT22;8784;50.94667800;7.08448400;2023-07-29T01:02:09;19.90;99.90
17333;DHT22;8784;50.94667800;7.08448400;2023-07-29T01:04:37;20.00;99.90
17333;DHT22;8784;50.94667800;7.08448400;2023-07-29T01:07:12;20.00;99.90
17333;DHT22;8784;50.94667800;7.08448400;2023-07-29T01:09:46;20.00;99.90
17333;DHT22;8784;50.94667800;7.08448400;2023-07-29T01:12:20;20.00;99.90
17333;DHT22;8784;50.94667800;7.08448400;2023-07-29T01:14:54;20.10;99.90
17333;DHT22;8784;50.94667800;7.08448400;2023-07-29T01:17:23;20.00;99.90
17333;DHT22;8784;50.94667800;7.08448400;2023-07-29T01:20:00;20.00;99.90
17333;DHT22;8784;50.94667800;7.08448400;2023-07-29T01:22:29;20.00;99.90
17333;DHT22;8784;50.94667800;7.08448400;2023-07-29T01:24:58;20.00;99.90
17333;DHT22;8784;50.94667800;7.08448400;2023-07-29T01:27:25;20.00;99.90
17333;DHT22;8784;50.94667800;7.08448400;2023-07-29T01:29:52;20.00;99.90
17333;DHT22;8784;50.94667800;7.08448400;2023-07-29T01:32:25;20.00;99.90
17333;DHT22;8784;50.94667800;7.08448400;2023-07-29T01:35:00;20.00;99.90
17333;DHT22;8784;50.94667800;7.08448400;2023-07-29T01:37:32;20.00;99.90
17333;DHT22;8784;50.94667800;7.08448400;2023-07-29T01:40:01;20.10;99.90
17333;DHT22;8784;50.94667800;7.08448400;2023-07-29T01:42:29;20.00;99.90
17333;DHT22;8784;50.94667800;7.08448400;2023-07-29T01:44:57;20.00;99.90
17333;DHT22;8784;50.94667800;7.08448400;2023-07-29T01:47:24;20.00;99.90
17333;DHT22;8784;50.94667800;7.08448400;2023-07-29T01:49:51;20.00;99.90
17333;DHT22;8784;50.94667800;7.08448400;2023-07-29T01:52:18;20.00;99.90
17333;DHT22;8784;50.94667800;7.08448400;2023-07-29T01:54:45;19.90;99.90
17333;DHT22;8784;50.94667800;7.08448400;2023-07-29T01:57:13;19.90;99.90
17333;DHT22;8784;50.94667800;7.08448400;2023-07-29T01:59:40;19.80;99.90
17333;DHT22;8784;50.94667800;7.08448400;2023-07-29T02:02:07;19.60;99.90
17333;DHT22;8784;50.94667800;7.08448400;2023-07-29T02:04:33;19.50;99.90
17333;DHT22;8784;50.94667800;7.08448400;2023-07-29T02:07:00;19.50;99.90
17333;DHT22;8784;50.94667800;7.08448400;2023-07-29T02:09:27;19.40;99.90
17333;DHT22;8784;50.94667800;7.08448400;2023-07-29T02:11:54;19.40;99.90
17333;DHT22;8784;50.94667800;7.08448400;2023-07-29T02:14:23;19.40;99.90
17333;DHT22;8784;50.94667800;7.08448400;2023-07-29T02:16:50;19.50;99.90
17333;DHT22;8784;50.94667800;7.08448400;2023-07-29T02:19:16;19.50;99.90
17333;DHT22;8784;50.94667800;7.08448400;2023-07-29T02:21:43;19.50;99.90
17333;DHT22;8784;50.94667800;7.08448400;2023-07-29T02:24:10;19.40;99.90
17333;DHT22;8784;50.94667800;7.08448400;2023-07-29T02:26:37;19.30;99.90
17333;DHT22;8784;50.94667800;7.08448400;2023-07-29T02:29:04;19.30;99.90
17333;DHT22;8784;50.94667800;7.08448400;2023-07-29T02:31:32;19.30;99.90
17333;DHT22;8784;50.94667800;7.08448400;2023-07-29T02:34:00;19.30;99.90
17333;DHT22;8784;50.94667800;7.08448400;2023-07-29T02:36:27;19.20;99.90
17333;DHT22;8784;50.94667800;7.08448400;2023-07-29T02:38:54;19.30;99.90
17333;DHT22;8784;50.94667800;7.08448400;2023-07-29T02:41:20;19.30;99.90
17333;DHT22;8784;50.94667800;7.08448400;2023-07-29T02:43:49;19.30;99.90
17333;DHT22;8784;50.94667800;7.08448400;2023-07-29T02:46:16;19.40;99.90
17333;DHT22;8784;50.94667800;7.08448400;2023-07-29T02:48:45;19.40;99.90
17333;DHT22;8784;50.94667800;7.08448400;2023-07-29T02:51:12;19.40;99.90
17333;DHT22;8784;50.94667800;7.08448400;2023-07-29T02:53:39;19.50;99.90
17333;DHT22;8784;50.94667800;7.08448400;2023-07-29T02:56:06;19.50;99.90
17333;DHT22;8784;50.94667800;7.08448400;2023-07-29T02:58:34;19.50;99.90
17333;DHT22;8784;50.94667800;7.08448400;2023-07-29T03:01:01;19.60;99.90
17333;DHT22;8784;50.94667800;7.08448400;2023-07-29T03:03:29;19.60;99.90
17333;DHT22;8784;50.94667800;7.08448400;2023-07-29T03:06:02;19.70;99.90
17333;DHT22;8784;50.94667800;7.08448400;2023-07-29T03:08:29;19.70;99.90
17333;DHT22;8784;50.94667800;7.08448400;2023-07-29T03:10:56;19.70;99.90
17333;DHT22;8784;50.94667800;7.08448400;2023-07-29T03:13:24;19.70;99.90
17333;DHT22;8784;50.94667800;7.08448400;2023-07-29T03:15:51;19.70;99.90
17333;DHT22;8784;50.94667800;7.08448400;2023-07-29T03:18:18;19.70;99.90
17333;DHT22;8784;50.94667800;7.08448400;2023-07-29T03:20:45;19.70;99.90
17333;DHT22;8784;50.94667800;7.08448400;2023-07-29T03:23:13;19.80;99.90
17333;DHT22;8784;50.94667800;7.08448400;2023-07-29T03:25:40;19.80;99.90
17333;DHT22;8784;50.94667800;7.08448400;2023-07-29T03:28:06;19.80;99.90
17333;DHT22;8784;50.94667800;7.08448400;2023-07-29T03:30:33;19.80;99.90
17333;DHT22;8784;50.94667800;7.08448400;2023-07-29T03:33:00;19.80;99.90
17333;DHT22;8784;50.94667800;7.08448400;2023-07-29T03:35:27;19.80;99.90
17333;DHT22;8784;50.94667800;7.08448400;2023-07-29T03:37:54;19.80;99.90
17333;DHT22;8784;50.94667800;7.08448400;2023-07-29T03:40:23;19.80;99.90
17333;DHT22;8784;50.94667800;7.08448400;2023-07-29T03:42:50;19.80;99.90
17333;DHT22;8784;50.94667800;7.08448400;2023-07-29T03:45:16;19.80;99.90
17333;DHT22;8784;50.94667800;7.08448400;2023-07-29T03:47:43;19.90;99.90
17333;DHT22;8784;50.94667800;7.08448400;2023-07-29T03:50:10;19.80;99.90
17333;DHT22;8784;50.94667800;7.08448400;2023-07-29T03:52:37;19.80;99.90
17333;DHT22;8784;50.94667800;7.08448400;2023-07-29T03:55:05;19.80;99.90
17333;DHT22;8784;50.94667800;7.08448400;2023-07-29T03:57:33;19.80;99.90
17333;DHT22;8784;50.94667800;7.08448400;2023-07-29T04:00:00;19.80;99.90
17333;DHT22;8784;50.94667800;7.08448400;2023-07-29T04:02:27;19.80;99.90
17333;DHT22;8784;50.94667800;7.08448400;2023-07-29T04:04:54;19.80;99.90
17333;DHT22;8784;50.94667800;7.08448400;2023-07-29T04:07:21;19.80;99.90
17333;DHT22;8784;50.94667800;7.08448400;2023-07-29T04:09:48;19.70;99.90
17333;DHT22;8784;50.94667800;7.08448400;2023-07-29T04:12:14;19.60;99.90
17333;DHT22;8784;50.94667800;7.08448400;2023-07-29T04:14:43;19.60;99.90
17333;DHT22;8784;50.94667800;7.08448400;2023-07-29T04:17:09;19.50;99.90
17333;DHT22;8784;50.94667800;7.08448400;2023-07-29T04:19:43;19.60;99.90
17333;DHT22;8784;50.94667800;7.08448400;2023-07-29T04:22:10;19.70;99.90
17333;DHT22;8784;50.94667800;7.08448400;2023-07-29T04:24:37;19.70;99.90
17333;DHT22;8784;50.94667800;7.08448400;2023-07-29T04:27:05;19.80;99.90
17333;DHT22;8784;50.94667800;7.08448400;2023-07-29T04:29:32;19.70;99.90
17333;DHT22;8784;50.94667800;7.08448400;2023-07-29T04:32:02;19.70;99.90
17333;DHT22;8784;50.94667800;7.08448400;2023-07-29T04:34:29;19.60;99.90
17333;DHT22;8784;50.94667800;7.08448400;2023-07-29T04:36:56;19.60;99.90
17333;DHT22;8784;50.94667800;7.08448400;2023-07-29T04:39:23;19.70;99.90
17333;DHT22;8784;50.94667800;7.08448400;2023-07-29T04:41:50;19.80;99.90
17333;DHT22;8784;50.94667800;7.08448400;2023-07-29T04:44:17;19.90;99.90
17333;DHT22;8784;50.94667800;7.08448400;2023-07-29T04:46:44;20.00;99.90
17333;DHT22;8784;50.94667800;7.08448400;2023-07-29T04:49:12;20.00;99.90
17333;DHT22;8784;50.94667800;7.08448400;2023-07-29T04:51:39;20.00;99.90
17333;DHT22;8784;50.94667800;7.08448400;2023-07-29T04:54:05;20.10;99.90
17333;DHT22;8784;50.94667800;7.08448400;2023-07-29T04:56:32;20.10;99.90
17333;DHT22;8784;50.94667800;7.08448400;2023-07-29T04:58:59;20.10;99.90
17333;DHT22;8784;50.94667800;7.08448400;2023-07-29T05:01:26;20.10;99.90
17333;DHT22;8784;50.94667800;7.08448400;2023-07-29T05:03:53;20.20;99.90
17333;DHT22;8784;50.94667800;7.08448400;2023-07-29T05:06:21;20.20;99.90
17333;DHT22;8784;50.94667800;7.08448400;2023-07-29T05:08:48;20.20;99.90
17333;DHT22;8784;50.94667800;7.08448400;2023-07-29T05:11:15;20.20;99.90
17333;DHT22;8784;50.94667800;7.08448400;2023-07-29T05:13:42;20.20;99.90
17333;DHT22;8784;50.94667800;7.08448400;2023-07-29T05:16:09;20.30;99.90
17333;DHT22;8784;50.94667800;7.08448400;2023-07-29T05:18:36;20.30;99.90
17333;DHT22;8784;50.94667800;7.08448400;2023-07-29T05:21:03;20.30;99.90
17333;DHT22;8784;50.94667800;7.08448400;2023-07-29T05:23:31;20.30;99.90
17333;DHT22;8784;50.94667800;7.08448400;2023-07-29T05:25:58;20.30;99.90
17333;DHT22;8784;50.94667800;7.08448400;2023-07-29T05:28:25;20.40;99.90
17333;DHT22;8784;50.94667800;7.08448400;2023-07-29T05:30:52;20.40;99.90
17333;DHT22;8784;50.94667800;7.08448400;2023-07-29T05:33:19;20.50;99.90
17333;DHT22;8784;50.94667800;7.08448400;2023-07-29T05:35:46;20.50;99.90
17333;DHT22;8784;50.94667800;7.08448400;2023-07-29T05:38:13;20.50;99.90
17333;DHT22;8784;50.94667800;7.08448400;2023-07-29T05:40:41;20.50;99.90
17333;DHT22;8784;50.94667800;7.08448400;2023-07-29T05:43:08;20.50;99.90
17333;DHT22;8784;50.94667800;7.08448400;2023-07-29T05:45:35;20.50;99.90
17333;DHT22;8784;50.94667800;7.08448400;2023-07-29T05:48:01;20.50;99.90
17333;DHT22;8784;50.94667800;7.08448400;2023-07-29T05:50:28;20.50;99.90
17333;DHT22;8784;50.94667800;7.08448400;2023-07-29T05:52:55;20.60;99.90
17333;DHT22;8784;50.94667800;7.08448400;2023-07-29T05:55:22;20.60;99.90
17333;DHT22;8784;50.94667800;7.08448400;2023-07-29T05:57:50;20.50;99.90
17333;DHT22;8784;50.94667800;7.08448400;2023-07-29T06:00:17;20.50;99.90
17333;DHT22;8784;50.94667800;7.08448400;2023-07-29T06:02:44;20.50;99.90
17333;DHT22;8784;50.94667800;7.08448400;2023-07-29T06:05:11;20.50;99.90
17333;DHT22;8784;50.94667800;7.08448400;2023-07-29T06:07:38;20.60;99.90
17333;DHT22;8784;50.94667800;7.08448400;2023-07-29T06:10:09;20.60;99.90
17333;DHT22;8784;50.94667800;7.08448400;2023-07-29T06:12:37;20.70;99.90
17333;DHT22;8784;50.94667800;7.08448400;2023-07-29T06:15:06;20.80;99.90
17333;DHT22;8784;50.94667800;7.08448400;2023-07-29T06:17:33;20.90;99.90
17333;DHT22;8784;50.94667800;7.08448400;2023-07-29T06:20:00;21.00;99.90
17333;DHT22;8784;50.94667800;7.08448400;2023-07-29T06:22:28;21.00;99.90
17333;DHT22;8784;50.94667800;7.08448400;2023-07-29T06:24:54;21.00;99.90
17333;DHT22;8784;50.94667800;7.08448400;2023-07-29T06:27:21;21.10;99.90
17333;DHT22;8784;50.94667800;7.08448400;2023-07-29T06:29:50;21.10;99.90
17333;DHT22;8784;50.94667800;7.08448400;2023-07-29T06:32:18;21.10;99.90
17333;DHT22;8784;50.94667800;7.08448400;2023-07-29T06:34:45;21.10;99.90
17333;DHT22;8784;50.94667800;7.08448400;2023-07-29T06:37:12;21.10;99.90
17333;DHT22;8784;50.94667800;7.08448400;2023-07-29T06:39:39;21.10;99.90
17333;DHT22;8784;50.94667800;7.08448400;2023-07-29T06:42:06;21.10;99.90
17333;DHT22;8784;50.94667800;7.08448400;2023-07-29T06:44:33;21.10;99.90
17333;DHT22;8784;50.94667800;7.08448400;2023-07-29T06:47:00;21.10;99.90
17333;DHT22;8784;50.94667800;7.08448400;2023-07-29T06:49:28;21.20;99.90
17333;DHT22;8784;50.94667800;7.08448400;2023-07-29T06:51:55;21.10;99.90
17333;DHT22;8784;50.94667800;7.08448400;2023-07-29T06:54:24;21.20;99.90
17333;DHT22;8784;50.94667800;7.08448400;2023-07-29T06:56:51;21.30;99.90
17333;DHT22;8784;50.94667800;7.08448400;2023-07-29T06:59:18;21.40;99.90
17333;DHT22;8784;50.94667800;7.08448400;2023-07-29T07:01:45;21.40;99.90
17333;DHT22;8784;50.94667800;7.08448400;2023-07-29T07:04:12;21.40;99.90
17333;DHT22;8784;50.94667800;7.08448400;2023-07-29T07:06:41;21.30;99.90
17333;DHT22;8784;50.94667800;7.08448400;2023-07-29T07:09:08;21.40;99.90
17333;DHT22;8784;50.94667800;7.08448400;2023-07-29T07:11:34;21.60;99.90
17333;DHT22;8784;50.94667800;7.08448400;2023-07-29T07:14:01;22.10;99.90
17333;DHT22;8784;50.94667800;7.08448400;2023-07-29T07:16:28;23.00;99.90
17333;DHT22;8784;50.94667800;7.08448400;2023-07-29T07:18:56;23.60;99.90
17333;DHT22;8784;50.94667800;7.08448400;2023-07-29T07:21:23;23.80;99.90
17333;DHT22;8784;50.94667800;7.08448400;2023-07-29T07:23:51;23.90;99.90
17333;DHT22;8784;50.94667800;7.08448400;2023-07-29T07:26:18;24.30;99.90
17333;DHT22;8784;50.94667800;7.08448400;2023-07-29T07:28:45;24.30;99.90
17333;DHT22;8784;50.94667800;7.08448400;2023-07-29T07:31:12;24.20;99.90
17333;DHT22;8784;50.94667800;7.08448400;2023-07-29T07:33:39;24.10;99.90
17333;DHT22;8784;50.94667800;7.08448400;2023-07-29T07:36:06;24.00;99.90
17333;DHT22;8784;50.94667800;7.08448400;2023-07-29T07:38:33;23.80;99.90
17333;DHT22;8784;50.94667800;7.08448400;2023-07-29T07:41:01;23.50;99.90
17333;DHT22;8784;50.94667800;7.08448400;2023-07-29T07:43:28;23.30;99.90
17333;DHT22;8784;50.94667800;7.08448400;2023-07-29T07:45:58;23.10;99.90
17333;DHT22;8784;50.94667800;7.08448400;2023-07-29T07:48:25;23.00;99.90
17333;DHT22;8784;50.94667800;7.08448400;2023-07-29T07:50:52;23.20;99.90
17333;DHT22;8784;50.94667800;7.08448400;2023-07-29T07:53:19;23.30;99.90
17333;DHT22;8784;50.94667800;7.08448400;2023-07-29T07:55:46;23.20;99.90
17333;DHT22;8784;50.94667800;7.08448400;2023-07-29T07:58:14;23.20;99.90
17333;DHT22;8784;50.94667800;7.08448400;2023-07-29T08:00:41;23.40;99.90
17333;DHT22;8784;50.94667800;7.08448400;2023-07-29T08:03:08;23.50;99.90
17333;DHT22;8784;50.94667800;7.08448400;2023-07-29T08:05:35;23.50;99.90
17333;DHT22;8784;50.94667800;7.08448400;2023-07-29T08:08:02;23.50;99.90
17333;DHT22;8784;50.94667800;7.08448400;2023-07-29T08:10:29;23.50;99.90
17333;DHT22;8784;50.94667800;7.08448400;2023-07-29T08:12:56;23.70;99.90
17333;DHT22;8784;50.94667800;7.08448400;2023-07-29T08:15:24;24.10;99.90
17333;DHT22;8784;50.94667800;7.08448400;2023-07-29T08:17:51;24.60;99.90
17333;DHT22;8784;50.94667800;7.08448400;2023-07-29T08:20:18;25.60;99.90
17333;DHT22;8784;50.94667800;7.08448400;2023-07-29T08:22:45;27.00;99.90
17333;DHT22;8784;50.94667800;7.08448400;2023-07-29T08:25:12;28.50;99.90
17333;DHT22;8784;50.94667800;7.08448400;2023-07-29T08:27:38;29.70;99.90
17333;DHT22;8784;50.94667800;7.08448400;2023-07-29T08:30:07;30.30;99.90
17333;DHT22;8784;50.94667800;7.08448400;2023-07-29T08:32:35;30.00;99.90
17333;DHT22;8784;50.94667800;7.08448400;2023-07-29T08:35:02;29.60;99.90
17333;DHT22;8784;50.94667800;7.08448400;2023-07-29T08:37:29;29.10;99.90
17333;DHT22;8784;50.94667800;7.08448400;2023-07-29T08:39:57;28.50;99.90
17333;DHT22;8784;50.94667800;7.08448400;2023-07-29T08:42:28;28.20;99.90
17333;DHT22;8784;50.94667800;7.08448400;2023-07-29T08:44:56;27.60;99.90
17333;DHT22;8784;50.94667800;7.08448400;2023-07-29T08:47:23;27.00;99.90
17333;DHT22;8784;50.94667800;7.08448400;2023-07-29T08:49:52;26.50;99.90
17333;DHT22;8784;50.94667800;7.08448400;2023-07-29T08:52:20;26.20;99.90
17333;DHT22;8784;50.94667800;7.08448400;2023-07-29T08:54:47;25.70;99.90
17333;DHT22;8784;50.94667800;7.08448400;2023-07-29T08:57:14;25.30;99.90
17333;DHT22;8784;50.94667800;7.08448400;2023-07-29T08:59:42;25.10;99.90
17333;DHT22;8784;50.94667800;7.08448400;2023-07-29T09:02:09;24.80;99.90
17333;DHT22;8784;50.94667800;7.08448400;2023-07-29T09:04:38;24.60;99.90
17333;DHT22;8784;50.94667800;7.08448400;2023-07-29T09:07:07;24.40;99.90
17333;DHT22;8784;50.94667800;7.08448400;2023-07-29T09:09:34;24.30;99.90
17333;DHT22;8784;50.94667800;7.08448400;2023-07-29T09:12:01;24.20;99.90
17333;DHT22;8784;50.94667800;7.08448400;2023-07-29T09:14:28;24.10;99.90
17333;DHT22;8784;50.94667800;7.08448400;2023-07-29T09:16:55;24.00;99.90
17333;DHT22;8784;50.94667800;7.08448400;2023-07-29T09:19:25;24.10;99.90
17333;DHT22;8784;50.94667800;7.08448400;2023-07-29T09:21:52;24.30;99.90
17333;DHT22;8784;50.94667800;7.08448400;2023-07-29T09:24:21;24.50;99.90
17333;DHT22;8784;50.94667800;7.08448400;2023-07-29T09:26:51;24.40;99.90
17333;DHT22;8784;50.94667800;7.08448400;2023-07-29T09:29:22;24.30;99.90
17333;DHT22;8784;50.94667800;7.08448400;2023-07-29T09:31:49;24.20;99.90
17333;DHT22;8784;50.94667800;7.08448400;2023-07-29T09:34:16;24.10;99.90
17333;DHT22;8784;50.94667800;7.08448400;2023-07-29T09:36:43;24.10;99.90
17333;DHT22;8784;50.94667800;7.08448400;2023-07-29T09:39:11;24.00;99.90
17333;DHT22;8784;50.94667800;7.08448400;2023-07-29T09:41:40;23.90;99.90
17333;DHT22;8784;50.94667800;7.08448400;2023-07-29T09:44:07;23.60;99.90
17333;DHT22;8784;50.94667800;7.08448400;2023-07-29T09:46:35;23.40;99.90
17333;DHT22;8784;50.94667800;7.08448400;2023-07-29T09:49:03;23.40;99.90
17333;DHT22;8784;50.94667800;7.08448400;2023-07-29T09:51:31;23.30;99.90
17333;DHT22;8784;50.94667800;7.08448400;2023-07-29T09:54:02;23.20;99.90
17333;DHT22;8784;50.94667800;7.08448400;2023-07-29T09:56:29;23.00;99.90
17333;DHT22;8784;50.94667800;7.08448400;2023-07-29T09:58:58;22.80;99.90
17333;DHT22;8784;50.94667800;7.08448400;2023-07-29T10:01:25;22.80;99.90
17333;DHT22;8784;50.94667800;7.08448400;2023-07-29T10:03:52;23.00;99.90
17333;DHT22;8784;50.94667800;7.08448400;2023-07-29T10:06:22;23.30;99.90
17333;DHT22;8784;50.94667800;7.08448400;2023-07-29T10:08:50;23.50;99.90
17333;DHT22;8784;50.94667800;7.08448400;2023-07-29T10:11:18;23.80;99.90
17333;DHT22;8784;50.94667800;7.08448400;2023-07-29T10:13:48;24.30;99.90
17333;DHT22;8784;50.94667800;7.08448400;2023-07-29T10:16:16;24.80;99.90
17333;DHT22;8784;50.94667800;7.08448400;2023-07-29T10:18:45;24.90;99.90
17333;DHT22;8784;50.94667800;7.08448400;2023-07-29T10:21:12;24.90;99.90
17333;DHT22;8784;50.94667800;7.08448400;2023-07-29T10:23:43;25.00;99.90
17333;DHT22;8784;50.94667800;7.08448400;2023-07-29T10:26:14;24.90;99.90
17333;DHT22;8784;50.94667800;7.08448400;2023-07-29T10:28:46;24.80;99.90
17333;DHT22;8784;50.94667800;7.08448400;2023-07-29T10:31:16;24.60;99.90
17333;DHT22;8784;50.94667800;7.08448400;2023-07-29T10:33:44;24.40;99.90
17333;DHT22;8784;50.94667800;7.08448400;2023-07-29T10:36:12;24.20;99.90
17333;DHT22;8784;50.94667800;7.08448400;2023-07-29T10:38:40;24.00;99.90
17333;DHT22;8784;50.94667800;7.08448400;2023-07-29T10:41:07;23.90;99.90
17333;DHT22;8784;50.94667800;7.08448400;2023-07-29T10:43:36;23.70;99.90
17333;DHT22;8784;50.94667800;7.08448400;2023-07-29T10:46:19;23.60;99.90
17333;DHT22;8784;50.94667800;7.08448400;2023-07-29T10:48:53;23.50;99.90
17333;DHT22;8784;50.94667800;7.08448400;2023-07-29T10:51:28;23.40;99.90
17333;DHT22;8784;50.94667800;7.08448400;2023-07-29T10:54:02;23.20;99.90
17333;DHT22;8784;50.94667800;7.08448400;2023-07-29T10:56:31;23.10;99.90
17333;DHT22;8784;50.94667800;7.08448400;2023-07-29T10:59:22;23.00;99.90
17333;DHT22;8784;50.94667800;7.08448400;2023-07-29T11:01:53;22.80;99.90
17333;DHT22;8784;50.94667800;7.08448400;2023-07-29T11:04:24;22.80;99.90
17333;DHT22;8784;50.94667800;7.08448400;2023-07-29T11:07:20;22.80;99.90
17333;DHT22;8784;50.94667800;7.08448400;2023-07-29T11:10:02;22.80;99.90
17333;DHT22;8784;50.94667800;7.08448400;2023-07-29T11:12:35;22.90;99.90
17333;DHT22;8784;50.94667800;7.08448400;2023-07-29T11:15:04;23.00;99.90
17333;DHT22;8784;50.94667800;7.08448400;2023-07-29T11:17:33;23.10;99.90
17333;DHT22;8784;50.94667800;7.08448400;2023-07-29T11:20:01;23.10;99.90
17333;DHT22;8784;50.94667800;7.08448400;2023-07-29T11:22:28;23.10;99.90
17333;DHT22;8784;50.94667800;7.08448400;2023-07-29T11:24:55;23.00;99.90
17333;DHT22;8784;50.94667800;7.08448400;2023-07-29T11:27:23;22.90;99.90
17333;DHT22;8784;50.94667800;7.08448400;2023-07-29T11:29:49;22.80;99.90
17333;DHT22;8784;50.94667800;7.08448400;2023-07-29T11:32:16;22.60;99.90
17333;DHT22;8784;50.94667800;7.08448400;2023-07-29T11:34:45;22.60;99.90
17333;DHT22;8784;50.94667800;7.08448400;2023-07-29T11:37:12;22.60;99.90
17333;DHT22;8784;50.94667800;7.08448400;2023-07-29T11:39:39;22.40;99.90
17333;DHT22;8784;50.94667800;7.08448400;2023-07-29T11:42:07;22.50;99.90
17333;DHT22;8784;50.94667800;7.08448400;2023-07-29T11:44:37;22.90;99.90
17333;DHT22;8784;50.94667800;7.08448400;2023-07-29T11:47:06;23.30;99.90
17333;DHT22;8784;50.94667800;7.08448400;2023-07-29T11:49:34;23.70;99.90
17333;DHT22;8784;50.94667800;7.08448400;2023-07-29T11:52:03;24.10;99.90
17333;DHT22;8784;50.94667800;7.08448400;2023-07-29T11:54:32;24.40;99.90
17333;DHT22;8784;50.94667800;7.08448400;2023-07-29T11:56:59;24.60;99.90
17333;DHT22;8784;50.94667800;7.08448400;2023-07-29T11:59:27;24.70;99.90
17333;DHT22;8784;50.94667800;7.08448400;2023-07-29T12:01:54;24.90;99.90
17333;DHT22;8784;50.94667800;7.08448400;2023-07-29T12:04:21;24.90;99.90
17333;DHT22;8784;50.94667800;7.08448400;2023-07-29T12:06:48;24.90;99.90
17333;DHT22;8784;50.94667800;7.08448400;2023-07-29T12:09:17;24.90;99.90
17333;DHT22;8784;50.94667800;7.08448400;2023-07-29T12:11:44;25.00;99.90
17333;DHT22;8784;50.94667800;7.08448400;2023-07-29T12:14:11;25.10;99.90
17333;DHT22;8784;50.94667800;7.08448400;2023-07-29T12:16:41;25.30;99.90
17333;DHT22;8784;50.94667800;7.08448400;2023-07-29T12:19:08;25.50;99.90
17333;DHT22;8784;50.94667800;7.08448400;2023-07-29T12:21:35;25.60;99.90
17333;DHT22;8784;50.94667800;7.08448400;2023-07-29T12:24:02;25.70;99.90
17333;DHT22;8784;50.94667800;7.08448400;2023-07-29T12:26:31;25.70;99.90
17333;DHT22;8784;50.94667800;7.08448400;2023-07-29T12:28:58;25.70;99.90
17333;DHT22;8784;50.94667800;7.08448400;2023-07-29T12:31:31;25.70;99.90
17333;DHT22;8784;50.94667800;7.08448400;2023-07-29T12:33:58;25.70;99.90
17333;DHT22;8784;50.94667800;7.08448400;2023-07-29T12:36:39;25.60;99.90
17333;DHT22;8784;50.94667800;7.08448400;2023-07-29T12:39:16;25.60;99.90
17333;DHT22;8784;50.94667800;7.08448400;2023-07-29T12:41:44;25.50;99.90
17333;DHT22;8784;50.94667800;7.08448400;2023-07-29T12:44:11;25.50;99.90
17333;DHT22;8784;50.94667800;7.08448400;2023-07-29T12:46:38;25.60;99.90
17333;DHT22;8784;50.94667800;7.08448400;2023-07-29T12:49:05;25.70;99.90
17333;DHT22;8784;50.94667800;7.08448400;2023-07-29T12:51:32;25.80;99.90
17333;DHT22;8784;50.94667800;7.08448400;2023-07-29T12:54:00;26.10;99.90
17333;DHT22;8784;50.94667800;7.08448400;2023-07-29T12:56:27;26.10;99.90
17333;DHT22;8784;50.94667800;7.08448400;2023-07-29T12:58:55;25.90;99.90
17333;DHT22;8784;50.94667800;7.08448400;2023-07-29T13:01:21;25.70;99.90
17333;DHT22;8784;50.94667800;7.08448400;2023-07-29T13:03:49;25.50;99.90
17333;DHT22;8784;50.94667800;7.08448400;2023-07-29T13:06:16;25.40;99.90
17333;DHT22;8784;50.94667800;7.08448400;2023-07-29T13:08:43;25.40;99.90
17333;DHT22;8784;50.94667800;7.08448400;2023-07-29T13:11:11;25.30;99.90
17333;DHT22;8784;50.94667800;7.08448400;2023-07-29T13:13:38;25.20;99.90
17333;DHT22;8784;50.94667800;7.08448400;2023-07-29T13:16:06;25.20;99.90
17333;DHT22;8784;50.94667800;7.08448400;2023-07-29T13:18:33;25.30;99.90
17333;DHT22;8784;50.94667800;7.08448400;2023-07-29T13:21:00;25.40;99.90
17333;DHT22;8784;50.94667800;7.08448400;2023-07-29T13:23:27;25.50;99.90
17333;DHT22;8784;50.94667800;7.08448400;2023-07-29T13:25:55;25.50;99.90
17333;DHT22;8784;50.94667800;7.08448400;2023-07-29T13:28:22;25.40;99.90
17333;DHT22;8784;50.94667800;7.08448400;2023-07-29T13:30:49;25.30;99.90
17333;DHT22;8784;50.94667800;7.08448400;2023-07-29T13:33:17;25.20;99.90
17333;DHT22;8784;50.94667800;7.08448400;2023-07-29T13:35:44;25.10;99.90
17333;DHT22;8784;50.94667800;7.08448400;2023-07-29T13:38:11;24.90;99.90